Foster, Wisconsin
Current Conditions -  °F | °C
As of 11:56 AM on Thursday 27 Nov 2014 (Local Time) from KEAU Reporting Station
Clear Clear  
Wind Chill: -6°   Ceiling: Unl
Heat Index:   Visibility: 10mi
Dew Point: -3°   Wind: 7mph
Humidity: 67%   Direction: 240°WSW
Pressure: 30.45"   Gusts: NA
Location:  44.5464°N, 91.2123°W
Report Text: KEAU 271756Z 24006KT 10SM CLR M14/M19 A3045 RMK AO2 SLP331 T11441194 11144 21189 58004
Loading
Personal Weather Stations






























Interactive Weather Map New forecast layout! Learn more

10-Day Weather Forecast

Advertisements
Track Severe Weather on mobile